Terminal Aerodrome Forecast
Issued by NWS

Home | Current Version | Previous Version | Text Only | Print | Product List | Glossary On
Versions: 1 2 3 4 5 6 7 8 9 10 11 12
000
FTUS46 KLOX 261127
TAFWJF
TAF
KWJF 261127Z 2612/2712 27008KT P6SM SKC
     FM261700 24014KT P6SM SKC
     FM262100 24018G28KT P6SM SKC
     FM270200 24014KT P6SM SKC
     FM270500 26010KT P6SM SKC=

USA.gov is the U.S. government's official web portal to all federal, state and local government web resources and services.